X  Chiuso Dati meteorologici dell'aviazione (METAR)     LGRX Patras Araxos Agamemnon Airport
Temperatura
25°C Temperatura
12°C Punto di rugiada
44% Umidità



Vento
10 KM/O
6 MPH
3 M/S
5 KTS



290°
ONO
Condizioni attuali

Chiaro Chiaro
Pressione 1017.92 (hPa) - 30.06 (inHg)
Visibilità 6.2 (miglio) - 10 (km)
Aeroporto
Codice-Aeroporto LGRX

Posizione: Patras Araxos Agamemnon Airport
Distanza: 108 (km)

Metar:
LGRX 251250Z 29005KT CAVOK 25/12 Q1018 RMK FEW200 BLU

Ore: 25-09-2022 15:50 EEST